sensor_id;sensor_type;location;lat;lon;timestamp;P1;durP1;ratioP1;P2;durP2;ratioP2
11699;SDS011;5906;51.660;6.674;2023-11-21T00:00:35;25.40;;;10.13;;
11699;SDS011;5906;51.660;6.674;2023-11-21T00:03:01;17.27;;;9.27;;
11699;SDS011;5906;51.660;6.674;2023-11-21T00:05:30;16.57;;;8.87;;
11699;SDS011;5906;51.660;6.674;2023-11-21T00:07:57;16.93;;;8.93;;
11699;SDS011;5906;51.660;6.674;2023-11-21T00:10:23;13.97;;;8.40;;
11699;SDS011;5906;51.660;6.674;2023-11-21T00:12:50;9.77;;;8.63;;
11699;SDS011;5906;51.660;6.674;2023-11-21T00:15:17;18.90;;;9.30;;
11699;SDS011;5906;51.660;6.674;2023-11-21T00:17:45;19.80;;;10.50;;
11699;SDS011;5906;51.660;6.674;2023-11-21T00:20:12;14.20;;;9.70;;
11699;SDS011;5906;51.660;6.674;2023-11-21T00:22:40;13.00;;;9.37;;
11699;SDS011;5906;51.660;6.674;2023-11-21T00:25:07;16.93;;;9.40;;
11699;SDS011;5906;51.660;6.674;2023-11-21T00:27:35;17.23;;;8.30;;
11699;SDS011;5906;51.660;6.674;2023-11-21T00:30:03;14.23;;;9.73;;
11699;SDS011;5906;51.660;6.674;2023-11-21T00:32:37;18.33;;;10.23;;
11699;SDS011;5906;51.660;6.674;2023-11-21T00:35:04;17.20;;;8.97;;
11699;SDS011;5906;51.660;6.674;2023-11-21T00:37:32;13.17;;;10.30;;
11699;SDS011;5906;51.660;6.674;2023-11-21T00:39:59;12.47;;;8.83;;
11699;SDS011;5906;51.660;6.674;2023-11-21T00:42:26;14.83;;;9.63;;
11699;SDS011;5906;51.660;6.674;2023-11-21T00:44:54;14.50;;;9.60;;
11699;SDS011;5906;51.660;6.674;2023-11-21T00:47:20;14.03;;;9.20;;
11699;SDS011;5906;51.660;6.674;2023-11-21T00:49:49;14.60;;;10.00;;
11699;SDS011;5906;51.660;6.674;2023-11-21T00:52:15;12.77;;;8.63;;
11699;SDS011;5906;51.660;6.674;2023-11-21T00:54:42;16.00;;;9.27;;
11699;SDS011;5906;51.660;6.674;2023-11-21T00:57:09;10.37;;;9.10;;
11699;SDS011;5906;51.660;6.674;2023-11-21T00:59:38;16.20;;;8.90;;
11699;SDS011;5906;51.660;6.674;2023-11-21T01:02:04;14.03;;;9.27;;
11699;SDS011;5906;51.660;6.674;2023-11-21T01:04:31;12.57;;;9.37;;
11699;SDS011;5906;51.660;6.674;2023-11-21T01:06:58;11.83;;;8.80;;
11699;SDS011;5906;51.660;6.674;2023-11-21T01:09:25;12.17;;;8.77;;
11699;SDS011;5906;51.660;6.674;2023-11-21T01:11:52;13.80;;;10.00;;
11699;SDS011;5906;51.660;6.674;2023-11-21T01:14:19;20.40;;;9.40;;
11699;SDS011;5906;51.660;6.674;2023-11-21T01:16:46;13.87;;;8.70;;
11699;SDS011;5906;51.660;6.674;2023-11-21T01:19:14;17.00;;;9.87;;
11699;SDS011;5906;51.660;6.674;2023-11-21T01:21:41;16.77;;;9.07;;
11699;SDS011;5906;51.660;6.674;2023-11-21T01:24:08;15.17;;;9.43;;
11699;SDS011;5906;51.660;6.674;2023-11-21T01:26:35;13.90;;;10.67;;
11699;SDS011;5906;51.660;6.674;2023-11-21T01:29:02;13.40;;;9.67;;
11699;SDS011;5906;51.660;6.674;2023-11-21T01:31:29;19.80;;;9.63;;
11699;SDS011;5906;51.660;6.674;2023-11-21T01:33:56;15.80;;;8.73;;
11699;SDS011;5906;51.660;6.674;2023-11-21T01:36:29;14.40;;;9.40;;
11699;SDS011;5906;51.660;6.674;2023-11-21T01:38:58;21.50;;;10.50;;
11699;SDS011;5906;51.660;6.674;2023-11-21T01:41:26;19.97;;;11.07;;
11699;SDS011;5906;51.660;6.674;2023-11-21T01:43:54;20.77;;;11.60;;
11699;SDS011;5906;51.660;6.674;2023-11-21T01:46:22;19.83;;;11.40;;
11699;SDS011;5906;51.660;6.674;2023-11-21T01:48:49;22.87;;;12.33;;
11699;SDS011;5906;51.660;6.674;2023-11-21T01:51:17;25.00;;;13.70;;
11699;SDS011;5906;51.660;6.674;2023-11-21T01:53:45;23.93;;;12.93;;
11699;SDS011;5906;51.660;6.674;2023-11-21T01:56:13;23.90;;;14.57;;
11699;SDS011;5906;51.660;6.674;2023-11-21T01:58:40;24.07;;;13.60;;
11699;SDS011;5906;51.660;6.674;2023-11-21T02:01:08;26.77;;;15.23;;
11699;SDS011;5906;51.660;6.674;2023-11-21T02:03:36;26.80;;;14.67;;
11699;SDS011;5906;51.660;6.674;2023-11-21T02:06:03;25.83;;;13.80;;
11699;SDS011;5906;51.660;6.674;2023-11-21T02:08:30;23.80;;;13.90;;
11699;SDS011;5906;51.660;6.674;2023-11-21T02:10:57;28.70;;;14.90;;
11699;SDS011;5906;51.660;6.674;2023-11-21T02:13:24;30.33;;;15.20;;
11699;SDS011;5906;51.660;6.674;2023-11-21T02:15:51;36.00;;;14.00;;
11699;SDS011;5906;51.660;6.674;2023-11-21T02:18:20;28.47;;;14.80;;
11699;SDS011;5906;51.660;6.674;2023-11-21T02:20:48;28.47;;;14.93;;
11699;SDS011;5906;51.660;6.674;2023-11-21T02:23:15;26.03;;;14.43;;
11699;SDS011;5906;51.660;6.674;2023-11-21T02:25:42;29.27;;;14.67;;
11699;SDS011;5906;51.660;6.674;2023-11-21T02:28:09;27.70;;;15.40;;
11699;SDS011;5906;51.660;6.674;2023-11-21T02:30:39;24.87;;;14.00;;
11699;SDS011;5906;51.660;6.674;2023-11-21T02:33:06;26.10;;;14.50;;
11699;SDS011;5906;51.660;6.674;2023-11-21T02:35:34;33.83;;;16.67;;
11699;SDS011;5906;51.660;6.674;2023-11-21T02:38:01;30.87;;;15.10;;
11699;SDS011;5906;51.660;6.674;2023-11-21T02:40:28;30.40;;;16.13;;
11699;SDS011;5906;51.660;6.674;2023-11-21T02:42:56;37.00;;;15.40;;
11699;SDS011;5906;51.660;6.674;2023-11-21T02:45:25;26.13;;;14.17;;
11699;SDS011;5906;51.660;6.674;2023-11-21T02:47:52;34.23;;;15.90;;
11699;SDS011;5906;51.660;6.674;2023-11-21T02:50:24;30.90;;;14.93;;
11699;SDS011;5906;51.660;6.674;2023-11-21T02:52:51;27.43;;;15.70;;
11699;SDS011;5906;51.660;6.674;2023-11-21T02:55:18;44.60;;;16.67;;
11699;SDS011;5906;51.660;6.674;2023-11-21T02:57:45;29.23;;;14.73;;
11699;SDS011;5906;51.660;6.674;2023-11-21T03:00:11;37.00;;;17.23;;
11699;SDS011;5906;51.660;6.674;2023-11-21T03:02:42;34.07;;;16.10;;
11699;SDS011;5906;51.660;6.674;2023-11-21T03:05:10;44.90;;;16.57;;
11699;SDS011;5906;51.660;6.674;2023-11-21T03:07:37;31.37;;;16.23;;
11699;SDS011;5906;51.660;6.674;2023-11-21T03:10:06;35.23;;;16.00;;
11699;SDS011;5906;51.660;6.674;2023-11-21T03:12:35;44.60;;;16.40;;
11699;SDS011;5906;51.660;6.674;2023-11-21T03:15:04;33.47;;;15.93;;
11699;SDS011;5906;51.660;6.674;2023-11-21T03:17:32;38.30;;;15.80;;
11699;SDS011;5906;51.660;6.674;2023-11-21T03:20:00;33.47;;;16.27;;
11699;SDS011;5906;51.660;6.674;2023-11-21T03:22:27;33.87;;;16.60;;
11699;SDS011;5906;51.660;6.674;2023-11-21T03:24:54;35.27;;;17.07;;
11699;SDS011;5906;51.660;6.674;2023-11-21T03:27:20;33.70;;;16.20;;
11699;SDS011;5906;51.660;6.674;2023-11-21T03:29:48;43.87;;;16.63;;
11699;SDS011;5906;51.660;6.674;2023-11-21T03:32:15;37.30;;;18.57;;
11699;SDS011;5906;51.660;6.674;2023-11-21T03:34:58;43.30;;;17.53;;
11699;SDS011;5906;51.660;6.674;2023-11-21T03:37:26;32.60;;;16.20;;
11699;SDS011;5906;51.660;6.674;2023-11-21T03:39:57;34.43;;;17.03;;
11699;SDS011;5906;51.660;6.674;2023-11-21T03:42:24;38.47;;;17.27;;
11699;SDS011;5906;51.660;6.674;2023-11-21T03:44:53;31.07;;;16.63;;
11699;SDS011;5906;51.660;6.674;2023-11-21T03:47:19;32.53;;;17.53;;
11699;SDS011;5906;51.660;6.674;2023-11-21T03:49:46;32.40;;;15.30;;
11699;SDS011;5906;51.660;6.674;2023-11-21T03:52:13;32.40;;;17.20;;
11699;SDS011;5906;51.660;6.674;2023-11-21T03:54:40;49.23;;;17.33;;
11699;SDS011;5906;51.660;6.674;2023-11-21T03:57:07;33.67;;;16.47;;
11699;SDS011;5906;51.660;6.674;2023-11-21T03:59:35;27.83;;;16.43;;
11699;SDS011;5906;51.660;6.674;2023-11-21T04:02:02;31.07;;;16.33;;
11699;SDS011;5906;51.660;6.674;2023-11-21T04:04:29;32.43;;;16.73;;
11699;SDS011;5906;51.660;6.674;2023-11-21T04:06:56;31.77;;;17.37;;
11699;SDS011;5906;51.660;6.674;2023-11-21T04:09:23;32.20;;;15.90;;
11699;SDS011;5906;51.660;6.674;2023-11-21T04:11:51;30.77;;;16.90;;
11699;SDS011;5906;51.660;6.674;2023-11-21T04:14:18;31.10;;;16.10;;
11699;SDS011;5906;51.660;6.674;2023-11-21T04:16:46;35.30;;;16.70;;
11699;SDS011;5906;51.660;6.674;2023-11-21T04:19:12;52.37;;;17.03;;
11699;SDS011;5906;51.660;6.674;2023-11-21T04:21:43;28.77;;;16.17;;
11699;SDS011;5906;51.660;6.674;2023-11-21T04:24:10;23.80;;;15.30;;
11699;SDS011;5906;51.660;6.674;2023-11-21T04:26:37;30.23;;;16.97;;
11699;SDS011;5906;51.660;6.674;2023-11-21T04:29:04;38.80;;;17.20;;
11699;SDS011;5906;51.660;6.674;2023-11-21T04:31:31;35.43;;;16.90;;
11699;SDS011;5906;51.660;6.674;2023-11-21T04:33:58;28.03;;;16.63;;
11699;SDS011;5906;51.660;6.674;2023-11-21T04:36:25;31.63;;;17.00;;
11699;SDS011;5906;51.660;6.674;2023-11-21T04:38:52;28.67;;;15.60;;
11699;SDS011;5906;51.660;6.674;2023-11-21T04:41:18;37.13;;;15.50;;
11699;SDS011;5906;51.660;6.674;2023-11-21T04:43:46;34.80;;;17.20;;
11699;SDS011;5906;51.660;6.674;2023-11-21T04:46:12;26.87;;;15.63;;
11699;SDS011;5906;51.660;6.674;2023-11-21T04:48:39;37.97;;;17.47;;
11699;SDS011;5906;51.660;6.674;2023-11-21T04:51:06;38.30;;;16.73;;
11699;SDS011;5906;51.660;6.674;2023-11-21T04:53:33;29.83;;;16.13;;
11699;SDS011;5906;51.660;6.674;2023-11-21T04:56:01;38.43;;;17.53;;
11699;SDS011;5906;51.660;6.674;2023-11-21T04:58:29;42.57;;;19.23;;
11699;SDS011;5906;51.660;6.674;2023-11-21T05:00:57;53.73;;;19.90;;
11699;SDS011;5906;51.660;6.674;2023-11-21T05:03:23;59.83;;;22.97;;
11699;SDS011;5906;51.660;6.674;2023-11-21T05:05:51;53.63;;;21.23;;
11699;SDS011;5906;51.660;6.674;2023-11-21T05:08:17;74.07;;;21.97;;
11699;SDS011;5906;51.660;6.674;2023-11-21T05:10:46;122.90;;;23.27;;
11699;SDS011;5906;51.660;6.674;2023-11-21T05:13:14;81.17;;;20.30;;
11699;SDS011;5906;51.660;6.674;2023-11-21T05:15:44;219.07;;;24.17;;
11699;SDS011;5906;51.660;6.674;2023-11-21T05:18:11;211.90;;;25.50;;
11699;SDS011;5906;51.660;6.674;2023-11-21T05:20:40;194.53;;;21.50;;
11699;SDS011;5906;51.660;6.674;2023-11-21T05:23:07;159.93;;;24.57;;
11699;SDS011;5906;51.660;6.674;2023-11-21T05:25:34;195.90;;;20.87;;
11699;SDS011;5906;51.660;6.674;2023-11-21T05:28:05;224.53;;;23.03;;
11699;SDS011;5906;51.660;6.674;2023-11-21T05:30:32;133.07;;;21.10;;
11699;SDS011;5906;51.660;6.674;2023-11-21T05:32:59;122.50;;;19.00;;
11699;SDS011;5906;51.660;6.674;2023-11-21T05:35:26;152.27;;;24.83;;
11699;SDS011;5906;51.660;6.674;2023-11-21T05:37:53;89.07;;;19.80;;
11699;SDS011;5906;51.660;6.674;2023-11-21T05:40:21;67.13;;;18.20;;
11699;SDS011;5906;51.660;6.674;2023-11-21T05:42:48;104.63;;;21.00;;
11699;SDS011;5906;51.660;6.674;2023-11-21T05:45:18;160.10;;;26.60;;
11699;SDS011;5906;51.660;6.674;2023-11-21T05:47:45;87.20;;;21.17;;
11699;SDS011;5906;51.660;6.674;2023-11-21T05:50:14;98.20;;;20.30;;
11699;SDS011;5906;51.660;6.674;2023-11-21T05:52:42;84.20;;;21.87;;
11699;SDS011;5906;51.660;6.674;2023-11-21T05:55:10;126.97;;;20.03;;
11699;SDS011;5906;51.660;6.674;2023-11-21T05:57:37;126.27;;;24.07;;
11699;SDS011;5906;51.660;6.674;2023-11-21T06:00:06;48.53;;;18.30;;
11699;SDS011;5906;51.660;6.674;2023-11-21T06:02:41;136.10;;;20.30;;
11699;SDS011;5906;51.660;6.674;2023-11-21T06:05:08;124.90;;;21.60;;
11699;SDS011;5906;51.660;6.674;2023-11-21T06:07:36;95.93;;;21.40;;
11699;SDS011;5906;51.660;6.674;2023-11-21T06:10:05;66.67;;;18.60;;
11699;SDS011;5906;51.660;6.674;2023-11-21T06:12:35;57.37;;;20.97;;
11699;SDS011;5906;51.660;6.674;2023-11-21T06:15:03;43.40;;;18.90;;
11699;SDS011;5906;51.660;6.674;2023-11-21T06:17:35;41.80;;;18.10;;
11699;SDS011;5906;51.660;6.674;2023-11-21T06:20:03;44.80;;;18.97;;
11699;SDS011;5906;51.660;6.674;2023-11-21T06:22:39;29.90;;;17.57;;
11699;SDS011;5906;51.660;6.674;2023-11-21T06:25:06;40.83;;;20.00;;
11699;SDS011;5906;51.660;6.674;2023-11-21T06:27:42;47.47;;;18.00;;
11699;SDS011;5906;51.660;6.674;2023-11-21T06:30:11;40.30;;;17.63;;
11699;SDS011;5906;51.660;6.674;2023-11-21T06:32:40;54.63;;;21.17;;
11699;SDS011;5906;51.660;6.674;2023-11-21T06:35:07;67.83;;;20.83;;
11699;SDS011;5906;51.660;6.674;2023-11-21T06:37:37;60.40;;;18.90;;
11699;SDS011;5906;51.660;6.674;2023-11-21T06:40:04;36.10;;;18.00;;
11699;SDS011;5906;51.660;6.674;2023-11-21T06:42:32;79.37;;;19.93;;
11699;SDS011;5906;51.660;6.674;2023-11-21T06:45:04;41.27;;;19.47;;
11699;SDS011;5906;51.660;6.674;2023-11-21T06:47:31;42.23;;;18.83;;
11699;SDS011;5906;51.660;6.674;2023-11-21T06:49:59;57.33;;;19.93;;
11699;SDS011;5906;51.660;6.674;2023-11-21T06:52:26;62.40;;;20.33;;
11699;SDS011;5906;51.660;6.674;2023-11-21T06:54:53;77.07;;;18.90;;
11699;SDS011;5906;51.660;6.674;2023-11-21T06:57:22;37.07;;;19.20;;
11699;SDS011;5906;51.660;6.674;2023-11-21T06:59:50;42.00;;;18.43;;
11699;SDS011;5906;51.660;6.674;2023-11-21T07:02:16;53.33;;;18.23;;
11699;SDS011;5906;51.660;6.674;2023-11-21T07:04:45;62.77;;;20.43;;
11699;SDS011;5906;51.660;6.674;2023-11-21T07:07:12;40.03;;;11.60;;
11699;SDS011;5906;51.660;6.674;2023-11-21T07:09:39;59.93;;;17.17;;
11699;SDS011;5906;51.660;6.674;2023-11-21T07:12:06;48.00;;;17.77;;
11699;SDS011;5906;51.660;6.674;2023-11-21T07:14:34;51.00;;;20.27;;
11699;SDS011;5906;51.660;6.674;2023-11-21T07:17:01;53.73;;;19.63;;
11699;SDS011;5906;51.660;6.674;2023-11-21T07:19:28;49.80;;;19.63;;
11699;SDS011;5906;51.660;6.674;2023-11-21T07:21:55;59.83;;;21.20;;
11699;SDS011;5906;51.660;6.674;2023-11-21T07:24:22;51.27;;;22.10;;
11699;SDS011;5906;51.660;6.674;2023-11-21T07:26:52;48.93;;;20.57;;
11699;SDS011;5906;51.660;6.674;2023-11-21T07:29:25;78.07;;;21.10;;
11699;SDS011;5906;51.660;6.674;2023-11-21T07:31:53;81.43;;;21.27;;
11699;SDS011;5906;51.660;6.674;2023-11-21T07:34:20;101.13;;;20.07;;
11699;SDS011;5906;51.660;6.674;2023-11-21T07:36:47;101.07;;;21.30;;
11699;SDS011;5906;51.660;6.674;2023-11-21T07:39:14;84.53;;;20.10;;
11699;SDS011;5906;51.660;6.674;2023-11-21T07:41:44;88.83;;;20.63;;
11699;SDS011;5906;51.660;6.674;2023-11-21T07:44:18;54.70;;;20.17;;
11699;SDS011;5906;51.660;6.674;2023-11-21T07:46:46;56.13;;;18.80;;
11699;SDS011;5906;51.660;6.674;2023-11-21T07:49:13;63.30;;;20.03;;
11699;SDS011;5906;51.660;6.674;2023-11-21T07:51:42;49.10;;;19.17;;
11699;SDS011;5906;51.660;6.674;2023-11-21T07:54:10;42.80;;;19.33;;
11699;SDS011;5906;51.660;6.674;2023-11-21T07:56:36;61.07;;;19.40;;
11699;SDS011;5906;51.660;6.674;2023-11-21T07:59:03;50.17;;;20.80;;
11699;SDS011;5906;51.660;6.674;2023-11-21T08:01:30;47.53;;;21.20;;
11699;SDS011;5906;51.660;6.674;2023-11-21T08:03:58;53.27;;;19.80;;
11699;SDS011;5906;51.660;6.674;2023-11-21T08:06:30;50.87;;;22.10;;
11699;SDS011;5906;51.660;6.674;2023-11-21T08:08:58;49.27;;;20.60;;
11699;SDS011;5906;51.660;6.674;2023-11-21T08:11:25;58.97;;;21.87;;
11699;SDS011;5906;51.660;6.674;2023-11-21T08:13:57;53.83;;;22.03;;
11699;SDS011;5906;51.660;6.674;2023-11-21T08:16:25;52.00;;;22.10;;
11699;SDS011;5906;51.660;6.674;2023-11-21T08:18:55;46.83;;;21.87;;
11699;SDS011;5906;51.660;6.674;2023-11-21T08:21:24;65.77;;;20.97;;
11699;SDS011;5906;51.660;6.674;2023-11-21T08:23:56;64.33;;;20.33;;
11699;SDS011;5906;51.660;6.674;2023-11-21T08:26:24;60.20;;;20.07;;
11699;SDS011;5906;51.660;6.674;2023-11-21T08:28:53;67.13;;;21.80;;
11699;SDS011;5906;51.660;6.674;2023-11-21T08:31:23;60.83;;;20.87;;
11699;SDS011;5906;51.660;6.674;2023-11-21T08:33:53;57.97;;;21.60;;
11699;SDS011;5906;51.660;6.674;2023-11-21T08:36:24;62.93;;;23.97;;
11699;SDS011;5906;51.660;6.674;2023-11-21T08:38:52;47.37;;;20.23;;
11699;SDS011;5906;51.660;6.674;2023-11-21T08:41:19;51.17;;;21.43;;
11699;SDS011;5906;51.660;6.674;2023-11-21T08:43:51;66.33;;;22.20;;
11699;SDS011;5906;51.660;6.674;2023-11-21T08:46:20;57.13;;;23.10;;
11699;SDS011;5906;51.660;6.674;2023-11-21T08:48:47;63.40;;;22.07;;
11699;SDS011;5906;51.660;6.674;2023-11-21T08:51:14;66.33;;;23.20;;
11699;SDS011;5906;51.660;6.674;2023-11-21T08:53:42;71.10;;;21.83;;
11699;SDS011;5906;51.660;6.674;2023-11-21T08:56:18;54.63;;;21.20;;
11699;SDS011;5906;51.660;6.674;2023-11-21T08:58:46;67.73;;;24.30;;
11699;SDS011;5906;51.660;6.674;2023-11-21T09:01:13;65.70;;;22.73;;
11699;SDS011;5906;51.660;6.674;2023-11-21T09:03:43;59.17;;;22.23;;
11699;SDS011;5906;51.660;6.674;2023-11-21T09:06:11;60.03;;;22.10;;
11699;SDS011;5906;51.660;6.674;2023-11-21T09:08:38;73.57;;;24.27;;
11699;SDS011;5906;51.660;6.674;2023-11-21T09:11:05;62.97;;;22.17;;
11699;SDS011;5906;51.660;6.674;2023-11-21T09:13:35;50.17;;;20.63;;
11699;SDS011;5906;51.660;6.674;2023-11-21T09:16:03;55.23;;;22.70;;
11699;SDS011;5906;51.660;6.674;2023-11-21T09:18:32;49.17;;;22.23;;
11699;SDS011;5906;51.660;6.674;2023-11-21T09:20:59;63.47;;;22.47;;
11699;SDS011;5906;51.660;6.674;2023-11-21T09:23:26;63.30;;;24.63;;
11699;SDS011;5906;51.660;6.674;2023-11-21T09:25:53;55.80;;;22.60;;
11699;SDS011;5906;51.660;6.674;2023-11-21T09:28:23;60.53;;;23.47;;
11699;SDS011;5906;51.660;6.674;2023-11-21T09:30:50;58.00;;;21.70;;
11699;SDS011;5906;51.660;6.674;2023-11-21T09:33:19;58.07;;;22.80;;
11699;SDS011;5906;51.660;6.674;2023-11-21T09:35:48;57.50;;;23.50;;
11699;SDS011;5906;51.660;6.674;2023-11-21T09:38:17;59.63;;;23.20;;
11699;SDS011;5906;51.660;6.674;2023-11-21T09:40:50;55.13;;;23.90;;
11699;SDS011;5906;51.660;6.674;2023-11-21T09:43:26;65.37;;;25.10;;
11699;SDS011;5906;51.660;6.674;2023-11-21T09:45:59;57.60;;;23.03;;
11699;SDS011;5906;51.660;6.674;2023-11-21T09:48:30;51.30;;;22.63;;
11699;SDS011;5906;51.660;6.674;2023-11-21T09:51:02;60.50;;;23.83;;
11699;SDS011;5906;51.660;6.674;2023-11-21T09:53:34;65.90;;;22.63;;
11699;SDS011;5906;51.660;6.674;2023-11-21T11:08:05;31.67;;;14.83;;
11699;SDS011;5906;51.660;6.674;2023-11-21T11:10:34;27.40;;;14.60;;
11699;SDS011;5906;51.660;6.674;2023-11-21T11:13:01;27.17;;;14.40;;
11699;SDS011;5906;51.660;6.674;2023-11-21T11:15:29;29.47;;;15.37;;
11699;SDS011;5906;51.660;6.674;2023-11-21T11:17:56;26.67;;;15.70;;
11699;SDS011;5906;51.660;6.674;2023-11-21T11:20:37;28.97;;;15.50;;
11699;SDS011;5906;51.660;6.674;2023-11-21T11:28:47;28.77;;;15.57;;
11699;SDS011;5906;51.660;6.674;2023-11-21T11:34:49;39.00;;;16.67;;
11699;SDS011;5906;51.660;6.674;2023-11-21T11:49:32;34.90;;;16.67;;
11699;SDS011;5906;51.660;6.674;2023-11-21T12:08:00;30.03;;;16.87;;
11699;SDS011;5906;51.660;6.674;2023-11-21T12:16:16;26.60;;;15.37;;
11699;SDS011;5906;51.660;6.674;2023-11-21T12:18:52;26.17;;;15.13;;
11699;SDS011;5906;51.660;6.674;2023-11-21T12:21:41;27.90;;;14.30;;
11699;SDS011;5906;51.660;6.674;2023-11-21T12:28:52;25.70;;;15.27;;
11699;SDS011;5906;51.660;6.674;2023-11-21T12:31:34;27.03;;;15.10;;
11699;SDS011;5906;51.660;6.674;2023-11-21T12:34:35;28.63;;;16.20;;
11699;SDS011;5906;51.660;6.674;2023-11-21T12:37:28;27.30;;;14.80;;
11699;SDS011;5906;51.660;6.674;2023-11-21T14:31:57;18.30;;;10.40;;
11699;SDS011;5906;51.660;6.674;2023-11-21T14:36:39;22.23;;;10.47;;
11699;SDS011;5906;51.660;6.674;2023-11-21T14:40:00;22.77;;;11.30;;
11699;SDS011;5906;51.660;6.674;2023-11-21T14:47:24;19.23;;;10.00;;
11699;SDS011;5906;51.660;6.674;2023-11-21T14:51:00;19.93;;;9.30;;
11699;SDS011;5906;51.660;6.674;2023-11-21T14:54:46;16.77;;;9.63;;
11699;SDS011;5906;51.660;6.674;2023-11-21T18:42:00;31.80;;;11.57;;
11699;SDS011;5906;51.660;6.674;2023-11-21T18:44:43;19.13;;;11.87;;
11699;SDS011;5906;51.660;6.674;2023-11-21T18:52:50;17.83;;;11.10;;
11699;SDS011;5906;51.660;6.674;2023-11-21T19:10:16;19.73;;;12.13;;
11699;SDS011;5906;51.660;6.674;2023-11-21T19:12:45;20.17;;;12.70;;
11699;SDS011;5906;51.660;6.674;2023-11-21T19:15:13;18.27;;;13.03;;
11699;SDS011;5906;51.660;6.674;2023-11-21T19:17:42;21.30;;;13.30;;
11699;SDS011;5906;51.660;6.674;2023-11-21T19:20:10;23.47;;;13.20;;
11699;SDS011;5906;51.660;6.674;2023-11-21T19:22:37;20.17;;;13.33;;
11699;SDS011;5906;51.660;6.674;2023-11-21T19:25:05;18.07;;;12.83;;
11699;SDS011;5906;51.660;6.674;2023-11-21T19:27:35;18.90;;;13.10;;
11699;SDS011;5906;51.660;6.674;2023-11-21T19:30:05;19.40;;;13.33;;
11699;SDS011;5906;51.660;6.674;2023-11-21T19:32:37;22.70;;;12.63;;
11699;SDS011;5906;51.660;6.674;2023-11-21T19:35:05;24.77;;;16.33;;
11699;SDS011;5906;51.660;6.674;2023-11-21T19:37:35;19.20;;;12.97;;
11699;SDS011;5906;51.660;6.674;2023-11-21T19:40:02;22.90;;;13.90;;
11699;SDS011;5906;51.660;6.674;2023-11-21T19:42:30;30.70;;;13.40;;
11699;SDS011;5906;51.660;6.674;2023-11-21T19:44:58;22.50;;;13.83;;
11699;SDS011;5906;51.660;6.674;2023-11-21T19:47:26;18.37;;;13.17;;
11699;SDS011;5906;51.660;6.674;2023-11-21T19:49:53;22.00;;;13.57;;
11699;SDS011;5906;51.660;6.674;2023-11-21T19:52:21;21.77;;;14.00;;
11699;SDS011;5906;51.660;6.674;2023-11-21T19:54:49;21.83;;;14.70;;
11699;SDS011;5906;51.660;6.674;2023-11-21T19:57:16;21.90;;;14.10;;
11699;SDS011;5906;51.660;6.674;2023-11-21T19:59:43;25.00;;;14.83;;
11699;SDS011;5906;51.660;6.674;2023-11-21T20:02:11;21.00;;;14.13;;
11699;SDS011;5906;51.660;6.674;2023-11-21T20:04:38;21.60;;;13.07;;
11699;SDS011;5906;51.660;6.674;2023-11-21T20:07:05;18.43;;;12.60;;
11699;SDS011;5906;51.660;6.674;2023-11-21T20:09:32;21.13;;;13.23;;
11699;SDS011;5906;51.660;6.674;2023-11-21T20:11:59;18.50;;;11.63;;
11699;SDS011;5906;51.660;6.674;2023-11-21T20:14:26;22.03;;;13.57;;
11699;SDS011;5906;51.660;6.674;2023-11-21T20:16:55;22.63;;;12.80;;
11699;SDS011;5906;51.660;6.674;2023-11-21T20:19:22;17.50;;;10.70;;
11699;SDS011;5906;51.660;6.674;2023-11-21T20:21:50;12.93;;;9.73;;
11699;SDS011;5906;51.660;6.674;2023-11-21T20:24:19;16.80;;;10.40;;
11699;SDS011;5906;51.660;6.674;2023-11-21T20:26:47;14.33;;;9.40;;
11699;SDS011;5906;51.660;6.674;2023-11-21T20:29:18;13.67;;;8.70;;
11699;SDS011;5906;51.660;6.674;2023-11-21T20:53:58;11.70;;;8.37;;
11699;SDS011;5906;51.660;6.674;2023-11-21T20:58:17;10.10;;;8.33;;
11699;SDS011;5906;51.660;6.674;2023-11-21T21:14:22;11.27;;;8.33;;
11699;SDS011;5906;51.660;6.674;2023-11-21T21:16:52;10.60;;;7.67;;
11699;SDS011;5906;51.660;6.674;2023-11-21T21:19:20;13.23;;;9.30;;
11699;SDS011;5906;51.660;6.674;2023-11-21T21:21:47;11.93;;;8.10;;
11699;SDS011;5906;51.660;6.674;2023-11-21T21:24:14;9.43;;;8.33;;
11699;SDS011;5906;51.660;6.674;2023-11-21T21:26:41;12.23;;;8.70;;
11699;SDS011;5906;51.660;6.674;2023-11-21T21:29:08;13.63;;;8.97;;
11699;SDS011;5906;51.660;6.674;2023-11-21T21:31:37;12.87;;;8.70;;
11699;SDS011;5906;51.660;6.674;2023-11-21T21:34:05;14.63;;;8.70;;
11699;SDS011;5906;51.660;6.674;2023-11-21T21:36:34;13.47;;;8.77;;
11699;SDS011;5906;51.660;6.674;2023-11-21T21:46:54;12.47;;;9.20;;
11699;SDS011;5906;51.660;6.674;2023-11-21T21:49:23;11.23;;;8.47;;
11699;SDS011;5906;51.660;6.674;2023-11-21T21:51:50;15.87;;;9.67;;
11699;SDS011;5906;51.660;6.674;2023-11-21T21:54:18;13.60;;;9.10;;
11699;SDS011;5906;51.660;6.674;2023-11-21T21:56:45;13.07;;;9.80;;
11699;SDS011;5906;51.660;6.674;2023-11-21T21:59:13;11.83;;;9.00;;
11699;SDS011;5906;51.660;6.674;2023-11-21T22:01:43;13.20;;;9.57;;
11699;SDS011;5906;51.660;6.674;2023-11-21T22:04:11;12.67;;;8.77;;
11699;SDS011;5906;51.660;6.674;2023-11-21T22:06:38;13.47;;;8.87;;
11699;SDS011;5906;51.660;6.674;2023-11-21T22:09:06;18.63;;;9.70;;
11699;SDS011;5906;51.660;6.674;2023-11-21T22:11:33;15.07;;;9.03;;
11699;SDS011;5906;51.660;6.674;2023-11-21T22:14:00;14.10;;;9.37;;
11699;SDS011;5906;51.660;6.674;2023-11-21T22:16:30;12.50;;;9.50;;
11699;SDS011;5906;51.660;6.674;2023-11-21T22:18:58;13.03;;;9.50;;
11699;SDS011;5906;51.660;6.674;2023-11-21T22:21:29;12.63;;;9.13;;
11699;SDS011;5906;51.660;6.674;2023-11-21T22:23:56;12.97;;;9.23;;
11699;SDS011;5906;51.660;6.674;2023-11-21T22:26:24;11.90;;;8.57;;
11699;SDS011;5906;51.660;6.674;2023-11-21T22:28:54;12.57;;;8.73;;
11699;SDS011;5906;51.660;6.674;2023-11-21T22:31:22;15.13;;;9.60;;
11699;SDS011;5906;51.660;6.674;2023-11-21T22:33:50;13.63;;;10.27;;
11699;SDS011;5906;51.660;6.674;2023-11-21T22:36:17;14.00;;;9.37;;
11699;SDS011;5906;51.660;6.674;2023-11-21T22:38:46;17.53;;;11.77;;
11699;SDS011;5906;51.660;6.674;2023-11-21T22:41:13;20.83;;;11.50;;
11699;SDS011;5906;51.660;6.674;2023-11-21T22:43:53;23.73;;;11.13;;
11699;SDS011;5906;51.660;6.674;2023-11-21T22:46:20;18.53;;;10.83;;
11699;SDS011;5906;51.660;6.674;2023-11-21T22:48:47;15.73;;;11.03;;
11699;SDS011;5906;51.660;6.674;2023-11-21T22:51:19;15.23;;;11.30;;
11699;SDS011;5906;51.660;6.674;2023-11-21T22:53:46;15.20;;;10.60;;
11699;SDS011;5906;51.660;6.674;2023-11-21T22:56:14;15.17;;;10.80;;
11699;SDS011;5906;51.660;6.674;2023-11-21T22:58:42;16.17;;;10.37;;
11699;SDS011;5906;51.660;6.674;2023-11-21T23:01:09;16.17;;;11.27;;
11699;SDS011;5906;51.660;6.674;2023-11-21T23:03:38;18.30;;;11.73;;
11699;SDS011;5906;51.660;6.674;2023-11-21T23:06:06;20.87;;;12.20;;
11699;SDS011;5906;51.660;6.674;2023-11-21T23:08:33;19.67;;;13.47;;
11699;SDS011;5906;51.660;6.674;2023-11-21T23:11:00;29.10;;;12.40;;
11699;SDS011;5906;51.660;6.674;2023-11-21T23:13:29;25.73;;;13.23;;
11699;SDS011;5906;51.660;6.674;2023-11-21T23:15:57;25.47;;;13.27;;
11699;SDS011;5906;51.660;6.674;2023-11-21T23:18:31;20.93;;;12.70;;
11699;SDS011;5906;51.660;6.674;2023-11-21T23:20:58;20.70;;;12.60;;
11699;SDS011;5906;51.660;6.674;2023-11-21T23:23:26;19.37;;;13.30;;
11699;SDS011;5906;51.660;6.674;2023-11-21T23:25:54;24.13;;;14.30;;
11699;SDS011;5906;51.660;6.674;2023-11-21T23:28:22;22.43;;;13.67;;
11699;SDS011;5906;51.660;6.674;2023-11-21T23:30:50;24.43;;;14.90;;
11699;SDS011;5906;51.660;6.674;2023-11-21T23:33:17;21.63;;;13.27;;
11699;SDS011;5906;51.660;6.674;2023-11-21T23:35:46;29.23;;;13.23;;